MYAO weather

Moores Island Airport
Moore's Island, Sandy Point, Bahamas

Public forecast

Using degrees Celsius for public forecast. Weather courtesy of forecast.io.

METAR (pilot weather report)

Closest report is Grand Bahama International Airport, 62.6 nm (115.9 km) WNW. Retrieved 2019/09/19 16:00 UTC (13 minutes ago):

MYGF 191600Z 08017KT 9999 SCT028 BKN080 28/21 A2997

TAF (pilot weather forecast)

Forecast is more than 6 hours old.

Closest forecast is Grand Bahama International Airport, 62.6 nm (115.9 km) WNW. Retrieved 2019/09/19 06:03 UTC (10 hours ago):

TAF TAF MYGF 190430Z 1906/2006 04010G20KT 9999 FEW016CB SCT030 BECMG 1915/1917 9000 SHRA FEW016CB SCT018 BKN030